Terminal Aerodrome Forecast
Issued by NWS Sioux Falls, SD

Home | Current Version | Previous Version | Graphics & Text | Print | Product List | Glossary Off
Versions: 1 2 3 4 5 6 7 8 9 10 11 12 13 14 15 16 17 18 19 20 21 22 23 24 25 26 27 28 29 30 31 32 33

223
FTUS43 KFSD 221739
TAFSUX
TAF
KSUX 221739Z 2218/2318 17016G24KT P6SM SCT250
     FM230100 16014KT P6SM BKN040
     FM231000 16013KT P6SM SHRA VCTS OVC030CB
     FM231200 17010KT P6SM -SHRA OVC025
     FM231500 16012KT P6SM OVC015=

USA.gov is the U.S. government's official web portal to all federal, state and local government web resources and services.